Time;durP1;ratioP1;P1;durP2;ratioP2;P2;SDS_P1;SDS_P2;PMS_P1;PMS_P2;Temp;Humidity;BMP_temperature;BMP_pressure;BME280_temperature;BME280_humidity;BME280_pressure;Samples;Min_cycle;Max_cycle;Signal;HPM_P1;HPM_P2
2022/09/11 00:00:44;;;;;;;12.13;6.40;;;;;;;-141.28;100.00;49470.63;5084692;28;20280;-75
2022/09/11 00:03:12;;;;;;;8.97;6.07;;;;;;;-141.28;100.00;49525.56;5111751;28;20199;-75
2022/09/11 00:05:40;;;;;;;11.37;6.20;;;;;;;-141.28;100.00;49505.94;5087060;28;20288;-74
2022/09/11 00:08:08;;;;;;;10.30;6.23;;;;;;;-141.28;100.00;49502.03;5104472;28;20603;-78
2022/09/11 00:10:39;;;;;;;9.23;6.40;;;;;;;-141.28;100.00;49482.41;5105566;28;20195;-76
2022/09/11 00:13:06;;;;;;;8.77;6.30;;;;;;;-141.28;100.00;49478.47;5094209;28;20204;-79
2022/09/11 00:15:37;;;;;;;10.57;6.40;;;;;;;-141.28;100.00;49517.72;5084292;28;20211;-75
2022/09/11 00:18:06;;;;;;;12.33;7.00;;;;;;;-141.28;100.00;49439.22;5086587;28;20249;-76
2022/09/11 00:20:34;;;;;;;9.37;6.80;;;;;;;-141.28;100.00;49431.38;5111264;28;20226;-78
2022/09/11 00:23:03;;;;;;;9.13;6.63;;;;;;;-141.28;100.00;49407.84;5103072;28;20242;-77
2022/09/11 00:25:32;;;;;;;8.37;6.87;;;;;;;-141.28;100.00;49409.78;5091991;28;20224;-76
2022/09/11 00:27:59;;;;;;;11.67;7.07;;;;;;;-141.28;100.00;49445.13;5111158;28;20195;-77
2022/09/11 00:30:27;;;;;;;10.33;6.77;;;;;;;-141.28;100.00;49399.97;5096071;28;20207;-77
2022/09/11 00:32:54;;;;;;;9.60;7.00;;;;;;;-141.28;100.00;49462.78;5095205;28;20735;-74
2022/09/11 00:35:23;;;;;;;11.37;7.40;;;;;;;-141.28;100.00;49480.44;5107907;28;20207;-75
2022/09/11 00:37:50;;;;;;;10.07;7.57;;;;;;;-141.28;100.00;49468.66;5085188;28;20279;-75
2022/09/11 00:40:18;;;;;;;9.37;7.83;;;;;;;-141.28;100.00;49474.53;5077686;28;20708;-77
2022/09/11 00:42:51;;;;;;;7.93;7.13;;;;;;;-141.28;100.00;49466.69;5084622;28;20619;-75
2022/09/11 00:45:22;;;;;;;9.83;7.07;;;;;;;-141.28;100.00;49503.97;5081452;28;20231;-80
2022/09/11 00:47:51;;;;;;;9.40;6.77;;;;;;;-141.28;100.00;49494.16;5108821;28;20199;-75
2022/09/11 00:50:22;;;;;;;8.10;6.97;;;;;;;-141.28;100.00;49449.03;5086219;28;20722;-75
2022/09/11 00:52:54;;;;;;;9.40;7.23;;;;;;;-141.28;100.00;49433.34;5089085;28;20195;-79
2022/09/11 00:55:26;;;;;;;9.57;7.17;;;;;;;-141.28;100.00;49376.44;5093354;28;20195;-75
2022/09/11 00:57:58;;;;;;;7.70;6.90;;;;;;;-141.28;100.00;49362.69;5094612;28;20207;-75
2022/09/11 01:00:24;;;;;;;13.27;7.27;;;;;;;-141.28;100.00;49325.41;5077584;28;20203;-77
2022/09/11 01:02:53;;;;;;;10.87;7.43;;;;;;;-141.28;100.00;49282.25;5087448;28;20195;-75
2022/09/11 01:05:22;;;;;;;10.73;7.13;;;;;;;-141.28;100.00;49274.41;5074114;28;20318;-74
2022/09/11 01:07:53;;;;;;;8.70;6.83;;;;;;;-141.28;100.00;49215.53;5089869;28;20672;-76
2022/09/11 01:10:26;;;;;;;9.60;7.47;;;;;;;-141.28;100.00;49237.13;5091018;28;20231;-75
2022/09/11 01:13:05;;;;;;;8.77;7.07;;;;;;;-141.28;100.00;49243.00;5080268;28;20197;-75
2022/09/11 01:15:41;;;;;;;9.17;6.93;;;;;;;-141.28;100.00;49227.31;5073970;28;20257;-76
2022/09/11 01:18:18;;;;;;;8.37;7.33;;;;;;;-141.28;100.00;49211.59;5077358;28;20290;-78
2022/09/11 01:21:06;;;;;;;11.57;7.30;;;;;;;-141.28;100.00;49227.31;5094585;28;20195;-78
2022/09/11 01:24:09;;;;;;;12.63;6.87;;;;;;;-141.28;100.00;49286.16;5072761;28;20655;-75
2022/09/11 01:26:49;;;;;;;7.67;6.70;;;;;;;-141.28;100.00;49237.13;5073999;28;20204;-76
2022/09/11 01:29:25;;;;;;;10.40;6.63;;;;;;;-141.28;100.00;49182.19;5081965;28;20199;-78
2022/09/11 01:31:59;;;;;;;8.17;6.90;;;;;;;-141.28;100.00;49105.66;5077026;28;20199;-75
2022/09/11 01:34:33;;;;;;;9.33;6.97;;;;;;;-141.28;100.00;49066.41;5095421;28;20206;-76
2022/09/11 01:37:06;;;;;;;8.80;7.20;;;;;;;-141.28;100.00;49062.50;5089897;28;20191;-76
2022/09/11 01:39:40;;;;;;;14.37;6.53;;;;;;;-141.28;100.00;49035.03;5087204;28;20192;-76
2022/09/11 01:42:13;;;;;;;8.77;6.93;;;;;;;-141.28;100.00;49021.28;5093740;28;20663;-75
2022/09/11 01:44:46;;;;;;;8.33;6.57;;;;;;;-141.28;100.00;49015.41;5078600;28;20355;-77
2022/09/11 01:47:13;;;;;;;8.67;7.40;;;;;;;-141.28;100.00;48978.13;5078643;28;20196;-76
2022/09/11 01:49:43;;;;;;;9.70;7.00;;;;;;;-141.28;100.00;48966.34;5093802;28;20191;-76
2022/09/11 01:52:15;;;;;;;8.67;6.77;;;;;;;-141.28;100.00;48968.31;5098793;28;20206;-76
2022/09/11 01:54:47;;;;;;;7.73;6.70;;;;;;;-141.28;100.00;48968.31;5116549;28;20568;-74
2022/09/11 01:57:24;;;;;;;9.93;7.10;;;;;;;-141.28;100.00;48968.31;5092197;28;20207;-75
2022/09/11 01:59:58;;;;;;;8.17;6.97;;;;;;;-141.28;100.00;48958.50;5092541;28;20226;-75
2022/09/11 02:02:30;;;;;;;12.00;6.93;;;;;;;-141.28;100.00;48917.31;5093723;28;20202;-75
2022/09/11 02:05:03;;;;;;;10.27;6.83;;;;;;;-141.28;100.00;48933.00;5085749;28;20235;-76
2022/09/11 02:07:34;;;;;;;8.20;7.00;;;;;;;-141.28;100.00;48901.59;5078313;28;20580;-76
2022/09/11 02:10:08;;;;;;;9.70;7.13;;;;;;;-141.28;100.00;48899.66;5103114;28;20195;-75
2022/09/11 02:12:41;;;;;;;8.70;6.50;;;;;;;-141.28;100.00;48893.75;5095550;28;20199;-75
2022/09/11 02:15:14;;;;;;;11.03;6.83;;;;;;;-141.28;100.00;48885.91;5104673;28;20199;-76
2022/09/11 02:17:51;;;;;;;14.07;6.47;;;;;;;-141.28;100.00;48882.00;5093648;28;20195;-75
2022/09/11 02:20:19;;;;;;;8.47;6.80;;;;;;;-141.28;100.00;48850.59;5079700;28;20290;-75
2022/09/11 02:22:47;;;;;;;7.90;7.10;;;;;;;-141.28;100.00;48830.97;5080213;28;20199;-77
2022/09/11 02:25:15;;;;;;;9.50;7.27;;;;;;;-141.28;100.00;48819.22;5078730;28;20277;-76
2022/09/11 02:27:42;;;;;;;8.93;6.73;;;;;;;-141.28;100.00;48811.34;5073101;28;20192;-77
2022/09/11 02:30:13;;;;;;;7.17;6.47;;;;;;;-141.28;100.00;48823.13;5073966;28;20231;-76
2022/09/11 02:32:43;;;;;;;10.23;7.20;;;;;;;-141.28;100.00;48830.97;5083988;28;20598;-76
2022/09/11 02:35:11;;;;;;;9.87;6.80;;;;;;;-141.28;100.00;48819.22;5075141;28;20266;-76
2022/09/11 02:37:49;;;;;;;7.67;6.43;;;;;;;-141.28;100.00;48825.09;5083157;28;20208;-76
2022/09/11 02:40:38;;;;;;;10.70;7.07;;;;;;;-141.28;100.00;48844.72;5072371;28;20697;-76
2022/09/11 02:43:38;;;;;;;9.80;7.20;;;;;;;-141.28;100.00;48940.84;5098926;28;20199;-76
2022/09/11 02:46:24;;;;;;;8.00;7.20;;;;;;;-141.28;100.00;48931.03;5083225;28;20405;-76
2022/09/11 02:49:05;;;;;;;10.73;7.60;;;;;;;-141.28;100.00;48909.47;5072220;28;20192;-75
2022/09/11 02:51:43;;;;;;;8.57;7.40;;;;;;;-141.28;100.00;48836.88;5073050;28;20200;-75
2022/09/11 02:54:22;;;;;;;12.70;7.97;;;;;;;-141.28;100.00;48787.81;5085251;28;20646;-76
2022/09/11 02:56:56;;;;;;;13.27;8.50;;;;;;;-141.28;100.00;48760.34;5080086;28;20187;-76
2022/09/11 02:59:27;;;;;;;8.70;7.90;;;;;;;-141.28;100.00;48732.88;5076507;28;20305;-76
2022/09/11 03:02:00;;;;;;;9.03;8.13;;;;;;;-141.28;100.00;48709.34;5082174;28;20198;-77
2022/09/11 03:04:30;;;;;;;11.47;7.60;;;;;;;-141.28;100.00;48697.56;5074569;28;20280;-78
2022/09/11 03:06:58;;;;;;;9.67;8.43;;;;;;;-141.28;100.00;48679.91;5072129;28;20704;-78
2022/09/11 03:09:25;;;;;;;10.20;8.87;;;;;;;-141.28;100.00;48650.50;5072157;28;20196;-74
2022/09/11 03:11:51;;;;;;;9.87;8.33;;;;;;;-141.28;100.00;48623.03;5072266;28;20203;-76
2022/09/11 03:14:19;;;;;;;13.90;8.63;;;;;;;-141.28;100.00;48626.94;5077549;28;20203;-76
2022/09/11 03:16:45;;;;;;;9.40;8.17;;;;;;;-141.28;100.00;48611.25;5081612;28;20200;-75
2022/09/11 03:19:14;;;;;;;11.67;8.23;;;;;;;-141.28;100.00;48615.19;5084938;28;20199;-76
2022/09/11 03:21:41;;;;;;;18.87;8.73;;;;;;;-141.28;100.00;48607.31;5085125;28;20192;-76
2022/09/11 03:24:09;;;;;;;10.90;8.90;;;;;;;-141.28;100.00;48597.53;5084425;28;20659;-75
2022/09/11 03:26:38;;;;;;;12.10;9.60;;;;;;;-141.28;100.00;48575.94;5086142;28;20200;-76
2022/09/11 03:29:07;;;;;;;12.07;8.97;;;;;;;-141.28;100.00;48530.81;5100289;28;20207;-76
2022/09/11 03:31:34;;;;;;;11.67;8.90;;;;;;;-141.28;100.00;48519.06;5078140;28;20219;-75
2022/09/11 03:34:01;;;;;;;13.47;9.83;;;;;;;-141.28;100.00;48505.31;5104081;28;20195;-74
2022/09/11 03:36:29;;;;;;;13.57;9.20;;;;;;;-141.28;100.00;48471.97;5105998;28;20191;-75
2022/09/11 03:38:58;;;;;;;11.17;8.70;;;;;;;-141.28;100.00;48458.22;5104080;28;20665;-75
2022/09/11 03:41:25;;;;;;;11.27;9.67;;;;;;;-141.28;100.00;48438.63;5097305;28;20201;-75
2022/09/11 03:43:52;;;;;;;20.17;9.53;;;;;;;-141.28;100.00;48422.94;5096034;28;20288;-75
2022/09/11 03:46:19;;;;;;;15.93;9.20;;;;;;;-141.28;100.00;48411.16;5091270;28;20223;-77
2022/09/11 03:48:46;;;;;;;11.93;9.30;;;;;;;-141.28;100.00;48419.00;5102815;28;20653;-76
2022/09/11 03:51:13;;;;;;;9.80;8.80;;;;;;;-141.28;100.00;48399.38;5085969;28;20282;-76
2022/09/11 03:53:42;;;;;;;12.03;9.17;;;;;;;-141.28;100.00;48403.31;5108277;28;20680;-75
2022/09/11 03:56:10;;;;;;;10.63;9.40;;;;;;;-141.28;100.00;48387.63;5090321;28;20286;-78
2022/09/11 03:58:37;;;;;;;12.50;9.87;;;;;;;-141.28;100.00;48364.06;5103832;28;20191;-76
2022/09/11 04:01:09;;;;;;;15.43;8.97;;;;;;;-141.28;100.00;48360.16;5108324;28;20195;-78
2022/09/11 04:03:36;;;;;;;12.50;9.67;;;;;;;-141.28;100.00;48356.22;5091616;28;20241;-75
2022/09/11 04:06:05;;;;;;;14.87;9.63;;;;;;;-141.28;100.00;48344.47;5079465;28;20727;-76
2022/09/11 04:08:33;;;;;;;26.77;11.00;;;;;;;-141.28;100.00;48332.69;5107106;28;20250;-75
2022/09/11 04:11:05;;;;;;;15.23;9.90;;;;;;;-141.28;100.00;48332.69;5114750;28;20210;-76
2022/09/11 04:13:34;;;;;;;19.73;10.43;;;;;;;-141.28;100.00;48317.00;5107566;28;20571;-77
2022/09/11 04:16:03;;;;;;;15.10;10.43;;;;;;;-141.28;100.00;48313.06;5109474;28;20261;-74
2022/09/11 04:18:31;;;;;;;15.03;10.13;;;;;;;-141.28;100.00;48334.66;5094697;28;20195;-78
2022/09/11 04:20:58;;;;;;;14.07;10.60;;;;;;;-141.28;100.00;48287.56;5086629;28;20635;-76
2022/09/11 04:23:25;;;;;;;20.07;10.03;;;;;;;-141.28;100.00;48297.38;5086051;28;20234;-75
2022/09/11 04:25:53;;;;;;;15.80;10.87;;;;;;;-141.28;100.00;48285.59;5077556;28;20596;-77
2022/09/11 04:28:21;;;;;;;14.03;10.33;;;;;;;-141.28;100.00;48277.75;5085499;28;20589;-77
2022/09/11 04:30:48;;;;;;;14.67;9.63;;;;;;;-141.28;100.00;48277.75;5088883;28;20553;-77
2022/09/11 04:33:15;;;;;;;13.17;10.17;;;;;;;-141.28;100.00;48232.66;5074953;28;20204;-75
2022/09/11 04:35:44;;;;;;;13.87;9.97;;;;;;;-141.28;100.00;48299.34;5088748;28;20211;-78
2022/09/11 04:38:12;;;;;;;13.33;10.13;;;;;;;-141.28;100.00;48289.53;5085746;28;20195;-75
2022/09/11 04:40:39;;;;;;;15.20;9.37;;;;;;;-141.28;100.00;48281.69;5078314;28;20208;-77
2022/09/11 04:43:06;;;;;;;13.00;9.70;;;;;;;-141.28;100.00;48283.66;5075211;28;20200;-77
2022/09/11 04:45:36;;;;;;;12.40;9.90;;;;;;;-141.28;100.00;48277.75;5074951;28;20231;-75
2022/09/11 04:48:03;;;;;;;13.10;10.00;;;;;;;-141.28;100.00;48301.31;5086399;28;20256;-77
2022/09/11 04:50:30;;;;;;;15.60;9.90;;;;;;;-141.28;100.00;48277.75;5089541;28;20192;-76
2022/09/11 04:52:57;;;;;;;17.87;10.37;;;;;;;-141.28;100.00;48285.59;5074722;28;20291;-78
2022/09/11 04:55:26;;;;;;;14.30;9.47;;;;;;;-141.28;100.00;48291.50;5093799;28;20278;-78
2022/09/11 04:57:53;;;;;;;14.27;9.13;;;;;;;-141.28;100.00;48311.09;5094864;28;20227;-77
2022/09/11 05:00:21;;;;;;;12.57;9.00;;;;;;;-141.28;100.00;48332.69;5114100;28;20277;-77
2022/09/11 05:02:49;;;;;;;9.10;8.20;;;;;;;-141.28;100.00;48356.22;5100363;28;20248;-75
2022/09/11 05:05:17;;;;;;;11.60;8.07;;;;;;;-141.28;100.00;48368.00;5102350;28;20227;-75
2022/09/11 05:07:44;;;;;;;15.03;7.80;;;;;;;-141.28;100.00;48391.53;5110022;28;20248;-76
2022/09/11 05:10:11;;;;;;;12.43;8.07;;;;;;;-141.28;100.00;48415.06;5100678;28;20204;-77
2022/09/11 05:12:39;;;;;;;10.67;8.10;;;;;;;-141.28;100.00;48438.63;5073986;28;20203;-76
2022/09/11 05:15:07;;;;;;;11.33;8.23;;;;;;;-141.28;100.00;48481.78;5073578;28;20200;-77
2022/09/11 05:17:35;;;;;;;13.10;8.47;;;;;;;-141.28;100.00;48497.47;5093127;28;20196;-76
2022/09/11 05:20:04;;;;;;;12.07;8.83;;;;;;;-141.28;100.00;48534.75;5080304;28;20544;-75
2022/09/11 05:22:32;;;;;;;9.77;8.40;;;;;;;-141.28;100.00;48572.00;5094313;28;20207;-74
2022/09/11 05:25:01;;;;;;;10.77;9.57;;;;;;;-141.28;100.00;48611.25;5095664;28;20199;-75
2022/09/11 05:27:29;;;;;;;14.17;9.17;;;;;;;-141.28;100.00;48674.03;5079286;28;20200;-74
2022/09/11 05:29:56;;;;;;;13.07;9.53;;;;;;;-141.28;100.00;48719.16;5081640;28;20622;-77
2022/09/11 05:32:25;;;;;;;15.77;10.13;;;;;;;-141.28;100.00;48764.28;5077333;28;20196;-77
2022/09/11 05:34:52;;;;;;;11.43;9.80;;;;;;;-141.28;100.00;48721.13;5081315;28;20196;-76
2022/09/11 05:37:21;;;;;;;13.20;9.90;;;;;;;-141.28;100.00;48862.38;5079540;28;20195;-74
2022/09/11 05:39:48;;;;;;;10.90;9.77;;;;;;;-141.28;100.00;48917.31;5088054;28;20226;-74
2022/09/11 05:42:16;;;;;;;12.87;9.87;;;;;;;-141.28;100.00;48980.09;5089320;28;20257;-77
2022/09/11 05:44:46;;;;;;;12.07;9.87;;;;;;;-141.28;100.00;49036.97;5098686;28;20219;-75
2022/09/11 05:47:13;;;;;;;11.13;9.17;;;;;;;-141.28;100.00;49121.34;5105567;28;20227;-78
2022/09/11 05:49:40;;;;;;;15.93;9.87;;;;;;;-141.28;100.00;49195.91;5104929;28;20195;-78
2022/09/11 05:52:07;;;;;;;12.87;9.23;;;;;;;-141.28;100.00;49268.50;5112935;28;20198;-76
2022/09/11 05:54:36;;;;;;;12.23;9.00;;;;;;;-141.28;100.00;49352.88;5111265;28;20675;-76
2022/09/11 05:57:03;;;;;;;11.10;9.20;;;;;;;-141.28;100.00;49376.44;5112475;28;20332;-76
2022/09/11 05:59:30;;;;;;;12.57;9.87;;;;;;;-141.28;100.00;49425.50;5110917;28;20248;-76
2022/09/11 06:01:57;;;;;;;11.23;9.43;;;;;;;-141.28;100.00;49443.16;5103202;28;20219;-78
2022/09/11 06:04:24;;;;;;;10.83;9.27;;;;;;;-141.28;100.00;49533.41;5021230;28;1555448;-75
2022/09/11 06:06:51;;;;;;;10.10;8.77;;;;;;;-141.28;100.00;49647.22;5092939;28;20770;-78
2022/09/11 06:09:18;;;;;;;13.57;9.50;;;;;;;-141.28;100.00;49690.41;5099375;28;20198;-75
2022/09/11 06:11:47;;;;;;;10.00;9.00;;;;;;;-141.28;100.00;49792.44;5119271;28;20190;-75
2022/09/11 06:14:16;;;;;;;13.40;9.30;;;;;;;-141.28;100.00;49861.13;5082944;28;20566;-76
2022/09/11 06:16:43;;;;;;;11.47;9.00;;;;;;;-141.28;100.00;49990.66;5093693;28;20250;-76
2022/09/11 06:19:10;;;;;;;14.57;9.73;;;;;;;-141.28;100.00;50067.22;5075764;28;20207;-76
2022/09/11 06:21:38;;;;;;;16.50;9.70;;;;;;;-141.28;100.00;50086.84;5073346;28;20203;-76
2022/09/11 06:24:05;;;;;;;12.63;9.93;;;;;;;-141.28;100.00;50141.78;5082957;28;20209;-76
2022/09/11 06:26:32;;;;;;;11.10;9.70;;;;;;;-141.28;100.00;50186.94;5113373;28;20310;-77
2022/09/11 06:29:03;;;;;;;10.90;9.60;;;;;;;-141.28;100.00;50226.19;5074703;28;20243;-77
2022/09/11 06:31:30;;;;;;;12.50;10.57;;;;;;;-141.28;100.00;50224.22;5098941;28;20239;-76
2022/09/11 06:33:57;;;;;;;14.23;9.57;;;;;;;-141.28;100.00;50251.69;5092734;28;20198;-78
2022/09/11 06:36:26;;;;;;;11.83;9.87;;;;;;;-141.28;100.00;50283.09;5105563;28;20195;-75
2022/09/11 06:38:54;;;;;;;11.57;9.80;;;;;;;-141.28;100.00;50273.28;5086268;28;20225;-75
2022/09/11 06:41:23;;;;;;;12.13;10.73;;;;;;;-141.28;100.00;50334.13;5097778;28;20277;-78
2022/09/11 06:43:51;;;;;;;13.70;10.57;;;;;;;-141.28;100.00;50338.06;5099718;28;20294;-77
2022/09/11 06:46:34;;;;;;;11.97;10.03;;;;;;;-141.28;100.00;50510.78;5096947;28;20223;-75
2022/09/11 06:49:01;;;;;;;14.50;10.60;;;;;;;-141.28;100.00;50510.78;5102446;28;20287;-76
2022/09/11 06:51:28;;;;;;;18.87;10.93;;;;;;;-141.28;100.00;50528.47;5110553;28;20191;-75
2022/09/11 06:53:57;;;;;;;12.73;10.73;;;;;;;-141.28;100.00;50518.66;5111634;28;20195;-75
2022/09/11 06:56:24;;;;;;;12.00;9.93;;;;;;;-141.28;100.00;50542.19;5097784;28;20227;-76
2022/09/11 06:58:56;;;;;;;11.30;10.10;;;;;;;-141.28;100.00;50563.78;5073356;28;20192;-75
2022/09/11 07:01:25;;;;;;;10.37;9.30;;;;;;;-141.28;100.00;50561.81;5088512;28;20213;-75
2022/09/11 07:03:55;;;;;;;14.93;10.23;;;;;;;-141.28;100.00;50479.38;5079832;28;20227;-77
2022/09/11 07:06:25;;;;;;;13.33;10.00;;;;;;;-141.28;100.00;50455.84;5085502;28;20223;-76
2022/09/11 07:08:53;;;;;;;10.47;9.37;;;;;;;-141.28;100.00;50483.31;5072368;28;20196;-76
2022/09/11 07:11:20;;;;;;;10.73;9.33;;;;;;;-141.28;100.00;50479.38;5088213;28;20195;-75
2022/09/11 07:13:48;;;;;;;13.37;9.57;;;;;;;-141.28;100.00;50420.50;5092993;28;20203;-77
2022/09/11 07:16:15;;;;;;;11.30;8.40;;;;;;;-141.28;100.00;50420.50;5092028;28;20199;-76
2022/09/11 07:18:43;;;;;;;9.83;8.07;;;;;;;-141.28;100.00;50483.31;5087051;28;20245;-74
2022/09/11 07:21:15;;;;;;;10.87;7.20;;;;;;;-141.28;100.00;50518.66;5111416;28;20683;-76
2022/09/11 07:23:46;;;;;;;9.03;8.13;;;;;;;-141.28;100.00;50650.16;5103449;28;20195;-78
2022/09/11 07:26:13;;;;;;;8.73;7.83;;;;;;;-141.28;100.00;50781.69;5106304;28;20646;-79
2022/09/11 07:28:41;;;;;;;8.43;7.13;;;;;;;-141.28;100.00;50765.97;5111520;28;20626;-75
2022/09/11 07:31:11;;;;;;;11.97;7.30;;;;;;;-141.28;100.00;50850.38;5096727;28;20227;-78
2022/09/11 07:33:41;;;;;;;10.33;7.37;;;;;;;-141.28;100.00;50921.06;5101012;28;20204;-74
2022/09/11 07:36:11;;;;;;;11.07;7.20;;;;;;;-141.28;100.00;51040.81;5089967;28;20210;-76
2022/09/11 07:38:40;;;;;;;12.27;6.90;;;;;;;-141.28;100.00;51152.72;5091261;28;20803;-77
2022/09/11 07:41:08;;;;;;;7.93;7.07;;;;;;;-141.28;100.00;51156.66;5102581;28;20196;-74
2022/09/11 07:43:36;;;;;;;7.30;6.20;;;;;;;-141.28;100.00;51146.81;5102308;28;20305;-75
2022/09/11 07:46:04;;;;;;;11.40;6.80;;;;;;;-141.28;100.00;51076.16;5107992;28;20271;-77
2022/09/11 07:48:31;;;;;;;11.23;6.90;;;;;;;-141.28;100.00;51191.97;5110268;28;20262;-78
2022/09/11 07:51:01;;;;;;;11.03;7.43;;;;;;;-141.28;100.00;51254.81;5089631;28;20268;-78
2022/09/11 07:53:33;;;;;;;9.67;6.57;;;;;;;-141.28;100.00;51337.28;5102071;28;20191;-76
2022/09/11 07:56:03;;;;;;;9.47;6.80;;;;;;;-141.28;100.00;51398.13;5085619;28;20205;-75
2022/09/11 07:58:33;;;;;;;6.67;6.00;;;;;;;-141.28;100.00;51417.78;5093334;28;20282;-76
2022/09/11 08:01:01;;;;;;;8.57;5.57;;;;;;;-141.28;100.00;51437.41;5107316;28;20278;-76
2022/09/11 08:03:29;;;;;;;5.60;5.10;;;;;;;-141.28;100.00;51529.69;5091033;28;20578;-76
2022/09/11 08:06:07;;;;;;;6.57;5.40;;;;;;;-141.28;100.00;51533.59;5111169;28;20225;-75
2022/09/11 08:08:37;;;;;;;8.13;5.90;;;;;;;-141.28;100.00;51696.59;5089267;28;20258;-76
2022/09/11 08:11:06;;;;;;;8.37;5.70;;;;;;;-141.28;100.00;51798.69;5072001;28;20287;-75
2022/09/11 08:13:34;;;;;;;6.53;5.67;;;;;;;-141.28;100.00;51839.94;5071568;28;20288;-77
2022/09/11 08:16:01;;;;;;;7.83;6.40;;;;;;;-141.28;100.00;51830.09;5085142;28;20204;-74
2022/09/11 08:18:28;;;;;;;6.70;5.97;;;;;;;-141.28;100.00;51845.81;5071398;28;20643;-76
2022/09/11 08:21:02;;;;;;;7.23;5.83;;;;;;;-141.28;100.00;51837.97;5103503;28;20202;-78
2022/09/11 08:23:30;;;;;;;6.47;5.43;;;;;;;-141.28;100.00;51804.59;5103724;28;20222;-76
2022/09/11 08:26:05;;;;;;;7.67;6.57;;;;;;;-141.28;100.00;51826.19;5084926;28;20195;-75
2022/09/11 08:28:34;;;;;;;8.43;6.93;;;;;;;-141.28;100.00;51857.59;5108561;28;20190;-77
2022/09/11 08:31:02;;;;;;;7.30;6.70;;;;;;;-141.28;100.00;51798.69;5099433;28;20642;-76
2022/09/11 08:33:29;;;;;;;9.37;7.00;;;;;;;-141.28;100.00;51802.63;5106825;28;20208;-75
2022/09/11 08:35:58;;;;;;;8.00;6.60;;;;;;;-141.28;100.00;51806.53;5098783;28;20257;-76
2022/09/11 08:38:25;;;;;;;8.97;6.97;;;;;;;-141.28;100.00;51745.69;5107189;28;20196;-76
2022/09/11 08:40:53;;;;;;;11.20;6.50;;;;;;;-141.28;100.00;51724.06;5097226;28;20642;-76
2022/09/11 08:43:26;;;;;;;10.10;7.60;;;;;;;-141.28;100.00;51618.03;5070069;28;20288;-74
2022/09/11 08:46:03;;;;;;;12.10;7.27;;;;;;;-141.28;100.00;51527.72;5076476;28;20195;-78
2022/09/11 08:48:44;;;;;;;9.63;8.33;;;;;;;-141.28;100.00;51582.69;5091374;28;20585;-76
2022/09/11 08:51:15;;;;;;;8.10;7.30;;;;;;;-141.28;100.00;51484.53;5083899;28;20211;-75
2022/09/11 08:53:43;;;;;;;8.13;7.33;;;;;;;-141.28;100.00;51427.59;5077482;28;20623;-76
2022/09/11 08:56:16;;;;;;;11.83;8.57;;;;;;;-141.28;100.00;51352.97;5074551;28;20205;-75
2022/09/11 08:59:00;;;;;;;11.17;8.00;;;;;;;-141.28;100.00;51425.63;5088431;28;20201;-79
2022/09/11 09:01:35;;;;;;;9.73;7.53;;;;;;;-141.28;100.00;51378.50;5094399;28;20567;-77
2022/09/11 09:04:22;;;;;;;9.50;8.00;;;;;;;-141.28;100.00;51366.72;5080304;28;20580;-75
2022/09/11 09:06:58;;;;;;;11.87;7.70;;;;;;;-141.28;100.00;51260.69;5104134;28;20222;-76
2022/09/11 09:09:36;;;;;;;10.03;9.00;;;;;;;-141.28;100.00;51264.63;5096220;28;20196;-75
2022/09/11 09:12:14;;;;;;;10.63;7.87;;;;;;;-141.28;100.00;51123.28;5094309;28;20199;-77
2022/09/11 09:15:08;;;;;;;8.87;7.63;;;;;;;-141.28;100.00;50989.78;5096591;28;20197;-75
2022/09/11 09:17:40;;;;;;;8.63;7.63;;;;;;;-141.28;100.00;50997.63;5089225;28;20205;-74
2022/09/11 09:20:13;;;;;;;8.47;7.57;;;;;;;-141.28;100.00;50840.56;5084168;28;20198;-76
2022/09/11 09:22:46;;;;;;;9.83;7.67;;;;;;;-141.28;100.00;50846.47;5089060;28;20243;-77
2022/09/11 09:25:17;;;;;;;8.23;7.53;;;;;;;-141.28;100.00;50599.13;5100359;28;20199;-77
2022/09/11 09:27:46;;;;;;;9.67;7.43;;;;;;;-141.28;100.00;50542.19;5086321;28;20694;-74
2022/09/11 09:30:18;;;;;;;8.10;7.30;;;;;;;-141.28;100.00;50318.44;5090012;28;20283;-76
2022/09/11 09:32:51;;;;;;;8.87;7.97;;;;;;;-141.28;100.00;50483.31;5084869;28;20651;-76
2022/09/11 09:35:23;;;;;;;9.53;8.63;;;;;;;-141.28;100.00;50400.88;5078468;28;20200;-78
2022/09/11 09:37:50;;;;;;;8.53;7.40;;;;;;;-141.28;100.00;50157.50;5083034;28;20236;-74
2022/09/11 09:40:19;;;;;;;11.30;7.53;;;;;;;-141.28;100.00;50061.31;5094021;28;20357;-75
2022/09/11 09:43:09;;;;;;;8.53;7.73;;;;;;;-141.28;100.00;50031.88;5082413;28;20232;-76
2022/09/11 09:45:52;;;;;;;8.30;7.50;;;;;;;-141.28;100.00;50361.63;5074169;28;20216;-78
2022/09/11 09:48:20;;;;;;;7.73;7.03;;;;;;;-141.28;100.00;50334.13;5079598;28;20694;-75
2022/09/11 09:50:49;;;;;;;10.63;7.57;;;;;;;-141.28;100.00;50336.09;5093981;28;20282;-76
2022/09/11 09:53:29;;;;;;;8.03;7.20;;;;;;;-141.28;100.00;50149.63;5075944;28;20200;-77
2022/09/11 09:55:59;;;;;;;7.50;6.77;;;;;;;-141.28;100.00;49855.25;5087763;28;20195;-77
2022/09/11 09:58:30;;;;;;;10.07;6.40;;;;;;;-141.28;100.00;49604.06;5085765;28;20651;-75
2022/09/11 10:01:00;;;;;;;8.20;7.10;;;;;;;-141.28;100.00;49627.59;5076246;28;20231;-74
2022/09/11 10:03:27;;;;;;;7.40;6.73;;;;;;;-141.28;100.00;49517.72;5096659;28;20234;-78
2022/09/11 10:05:56;;;;;;;7.17;5.53;;;;;;;-141.28;100.00;49333.25;5106584;28;20203;-77
2022/09/11 10:08:32;;;;;;;8.57;7.00;;;;;;;-141.28;100.00;49095.84;5093607;28;20257;-78
2022/09/11 10:11:01;;;;;;;7.87;6.67;;;;;;;-141.28;100.00;49035.03;5092780;28;20191;-74
2022/09/11 10:13:31;;;;;;;7.17;5.97;;;;;;;-141.28;100.00;48933.00;5082420;28;20196;-77
2022/09/11 10:16:03;;;;;;;6.33;5.83;;;;;;;-141.28;100.00;48850.59;5073086;28;20568;-78
2022/09/11 10:18:52;;;;;;;7.83;6.13;;;;;;;-141.28;100.00;48893.75;5073539;28;20265;-75
2022/09/11 10:21:28;;;;;;;8.67;6.93;;;;;;;-141.28;100.00;48889.84;5070142;28;20270;-76
2022/09/11 10:23:56;;;;;;;7.67;6.93;;;;;;;-141.28;100.00;48921.22;5073415;28;20593;-76
2022/09/11 10:26:28;;;;;;;7.23;6.53;;;;;;;-141.28;100.00;48948.69;5073215;28;20652;-75
2022/09/11 10:29:01;;;;;;;8.30;6.60;;;;;;;-141.28;100.00;48874.13;5079385;28;20554;-76
2022/09/11 10:31:30;;;;;;;7.60;6.90;;;;;;;-141.28;100.00;48797.63;5093511;28;20195;-79
2022/09/11 10:33:59;;;;;;;7.93;7.13;;;;;;;-141.28;100.00;48830.97;5093398;28;20194;-76
2022/09/11 10:36:29;;;;;;;7.00;6.27;;;;;;;-141.28;100.00;48774.09;5061995;28;20655;-74
2022/09/11 10:38:58;;;;;;;7.53;6.77;;;;;;;-141.28;100.00;48791.75;5072702;28;20192;-76
2022/09/11 10:41:27;;;;;;;7.33;6.40;;;;;;;-141.28;100.00;48805.47;5086856;28;20576;-77
2022/09/11 10:43:59;;;;;;;6.57;5.97;;;;;;;-141.28;100.00;48785.84;5081973;28;20222;-76
2022/09/11 10:46:31;;;;;;;9.13;6.50;;;;;;;-141.28;100.00;48787.81;5105451;28;20187;-76
2022/09/11 10:49:07;;;;;;;7.57;6.87;;;;;;;-141.28;100.00;48805.47;5092440;28;20252;-77
2022/09/11 10:51:38;;;;;;;8.07;7.03;;;;;;;-141.28;100.00;49101.72;5110606;28;20633;-79
2022/09/11 10:54:22;;;;;;;8.83;5.90;;;;;;;-141.28;100.00;48772.13;5112241;28;20206;-75
2022/09/11 10:57:04;;;;;;;6.87;6.27;;;;;;;-141.28;100.00;48772.13;5089695;28;20645;-78
2022/09/11 10:59:40;;;;;;;6.43;5.80;;;;;;;-141.28;100.00;48791.75;5096839;28;20691;-78
2022/09/11 11:02:19;;;;;;;7.20;6.40;;;;;;;-141.28;100.00;48799.59;5100327;28;20226;-77
2022/09/11 11:04:47;;;;;;;8.13;6.63;;;;;;;-141.28;100.00;48787.81;5078612;28;20297;-78
2022/09/11 11:07:29;;;;;;;8.77;5.80;;;;;;;-141.28;100.00;48776.03;5078678;28;20230;-76
2022/09/11 11:10:07;;;;;;;8.07;6.57;;;;;;;-141.28;100.00;48791.75;5089606;28;20208;-78
2022/09/11 11:12:46;;;;;;;6.10;5.50;;;;;;;-141.28;100.00;48789.78;5078479;28;20610;-75
2022/09/11 11:15:29;;;;;;;7.07;6.37;;;;;;;-141.28;100.00;48787.81;5072232;28;20200;-76
2022/09/11 11:18:17;;;;;;;6.83;6.23;;;;;;;-141.28;100.00;48779.97;5071577;28;20196;-76
2022/09/11 11:20:54;;;;;;;6.97;5.53;;;;;;;-141.28;100.00;48776.03;5072369;28;20200;-78